sensor_id;sensor_type;location;lat;lon;timestamp;pressure;altitude;pressure_sealevel;temperature;humidity
57948;BME280;43754;56.992;24.292;2023-05-19T00:01:29;103022.13;;;4.83;100.00
57948;BME280;43754;56.992;24.292;2023-05-19T00:04:02;103026.50;;;4.84;100.00
57948;BME280;43754;56.992;24.292;2023-05-19T00:06:36;103030.09;;;4.83;100.00
57948;BME280;43754;56.992;24.292;2023-05-19T00:09:09;103027.63;;;4.80;100.00
57948;BME280;43754;56.992;24.292;2023-05-19T00:11:42;103029.69;;;4.75;100.00
57948;BME280;43754;56.992;24.292;2023-05-19T00:14:16;103035.00;;;4.75;100.00
57948;BME280;43754;56.992;24.292;2023-05-19T00:16:49;103036.25;;;4.68;100.00
57948;BME280;43754;56.992;24.292;2023-05-19T00:19:21;103046.06;;;4.67;100.00
57948;BME280;43754;56.992;24.292;2023-05-19T00:21:55;103044.41;;;4.64;100.00
57948;BME280;43754;56.992;24.292;2023-05-19T00:24:27;103040.13;;;4.62;100.00
57948;BME280;43754;56.992;24.292;2023-05-19T00:26:59;103045.53;;;4.60;100.00
57948;BME280;43754;56.992;24.292;2023-05-19T00:29:33;103045.88;;;4.54;100.00
57948;BME280;43754;56.992;24.292;2023-05-19T00:32:05;103045.34;;;4.48;100.00
57948;BME280;43754;56.992;24.292;2023-05-19T00:34:37;103049.78;;;4.47;100.00
57948;BME280;43754;56.992;24.292;2023-05-19T00:37:09;103058.72;;;4.46;100.00
57948;BME280;43754;56.992;24.292;2023-05-19T00:39:41;103056.22;;;4.43;100.00
57948;BME280;43754;56.992;24.292;2023-05-19T00:42:14;103052.88;;;4.40;100.00
57948;BME280;43754;56.992;24.292;2023-05-19T00:44:47;103053.91;;;4.37;100.00
57948;BME280;43754;56.992;24.292;2023-05-19T00:47:21;103060.09;;;4.38;100.00
57948;BME280;43754;56.992;24.292;2023-05-19T00:49:53;103061.09;;;4.35;100.00
57948;BME280;43754;56.992;24.292;2023-05-19T00:52:25;103071.94;;;4.31;100.00
57948;BME280;43754;56.992;24.292;2023-05-19T00:54:58;103069.66;;;4.25;100.00
57948;BME280;43754;56.992;24.292;2023-05-19T00:57:30;103074.16;;;4.23;100.00
57948;BME280;43754;56.992;24.292;2023-05-19T01:00:05;103075.44;;;4.15;100.00
57948;BME280;43754;56.992;24.292;2023-05-19T01:02:37;103081.22;;;4.06;100.00
57948;BME280;43754;56.992;24.292;2023-05-19T01:05:11;103075.06;;;4.06;100.00
57948;BME280;43754;56.992;24.292;2023-05-19T01:07:43;103073.75;;;3.97;100.00
57948;BME280;43754;56.992;24.292;2023-05-19T01:10:18;103077.44;;;3.95;100.00
57948;BME280;43754;56.992;24.292;2023-05-19T01:12:50;103081.00;;;3.94;100.00
57948;BME280;43754;56.992;24.292;2023-05-19T01:15:25;103081.13;;;3.92;100.00
57948;BME280;43754;56.992;24.292;2023-05-19T01:18:00;103079.47;;;3.90;100.00
57948;BME280;43754;56.992;24.292;2023-05-19T01:20:41;103074.16;;;3.90;100.00
57948;BME280;43754;56.992;24.292;2023-05-19T01:23:24;103089.38;;;3.86;100.00
57948;BME280;43754;56.992;24.292;2023-05-19T01:26:10;103090.31;;;3.85;100.00
57948;BME280;43754;56.992;24.292;2023-05-19T01:29:24;103092.25;;;3.82;100.00
57948;BME280;43754;56.992;24.292;2023-05-19T01:32:01;103091.56;;;3.78;100.00
57948;BME280;43754;56.992;24.292;2023-05-19T01:34:42;103086.34;;;3.77;100.00
57948;BME280;43754;56.992;24.292;2023-05-19T01:37:15;103087.53;;;3.71;100.00
57948;BME280;43754;56.992;24.292;2023-05-19T01:39:50;103092.91;;;3.69;100.00
57948;BME280;43754;56.992;24.292;2023-05-19T01:42:24;103091.16;;;3.68;100.00
57948;BME280;43754;56.992;24.292;2023-05-19T01:44:57;103092.19;;;3.66;100.00
57948;BME280;43754;56.992;24.292;2023-05-19T01:47:31;103095.84;;;3.63;100.00
57948;BME280;43754;56.992;24.292;2023-05-19T01:50:05;103089.94;;;3.58;100.00
57948;BME280;43754;56.992;24.292;2023-05-19T01:52:37;103087.34;;;3.57;100.00
57948;BME280;43754;56.992;24.292;2023-05-19T01:55:11;103086.56;;;3.55;100.00
57948;BME280;43754;56.992;24.292;2023-05-19T01:57:51;103092.72;;;3.55;100.00
57948;BME280;43754;56.992;24.292;2023-05-19T02:00:32;103092.72;;;3.55;100.00
57948;BME280;43754;56.992;24.292;2023-05-19T02:03:19;103101.53;;;3.39;100.00
57948;BME280;43754;56.992;24.292;2023-05-19T02:05:59;103099.34;;;3.30;100.00
57948;BME280;43754;56.992;24.292;2023-05-19T02:08:41;103105.41;;;3.32;100.00
57948;BME280;43754;56.992;24.292;2023-05-19T02:11:18;103108.06;;;3.32;100.00
57948;BME280;43754;56.992;24.292;2023-05-19T02:13:55;103108.78;;;3.35;100.00
57948;BME280;43754;56.992;24.292;2023-05-19T02:16:28;103107.69;;;3.39;100.00
57948;BME280;43754;56.992;24.292;2023-05-19T02:19:01;103110.22;;;3.42;100.00
57948;BME280;43754;56.992;24.292;2023-05-19T02:21:33;103109.34;;;3.42;100.00
57948;BME280;43754;56.992;24.292;2023-05-19T02:24:06;103115.50;;;3.42;100.00
57948;BME280;43754;56.992;24.292;2023-05-19T02:26:38;103111.25;;;3.38;100.00
57948;BME280;43754;56.992;24.292;2023-05-19T02:29:11;103110.56;;;3.35;100.00
57948;BME280;43754;56.992;24.292;2023-05-19T02:31:43;103115.50;;;3.42;100.00
57948;BME280;43754;56.992;24.292;2023-05-19T02:34:17;103115.34;;;3.45;100.00
57948;BME280;43754;56.992;24.292;2023-05-19T02:36:50;103117.06;;;3.46;100.00
57948;BME280;43754;56.992;24.292;2023-05-19T02:39:22;103119.63;;;3.48;100.00
57948;BME280;43754;56.992;24.292;2023-05-19T02:41:54;103114.09;;;3.52;100.00
57948;BME280;43754;56.992;24.292;2023-05-19T02:44:26;103104.28;;;3.54;100.00
57948;BME280;43754;56.992;24.292;2023-05-19T02:46:58;103122.06;;;3.52;100.00
57948;BME280;43754;56.992;24.292;2023-05-19T02:49:32;103104.28;;;3.54;100.00
57948;BME280;43754;56.992;24.292;2023-05-19T02:52:06;103108.63;;;3.55;100.00
57948;BME280;43754;56.992;24.292;2023-05-19T02:54:39;103117.44;;;3.56;100.00
57948;BME280;43754;56.992;24.292;2023-05-19T02:57:11;103121.66;;;3.60;100.00
57948;BME280;43754;56.992;24.292;2023-05-19T02:59:43;103109.19;;;3.62;100.00
57948;BME280;43754;56.992;24.292;2023-05-19T03:02:15;103109.09;;;3.63;100.00
57948;BME280;43754;56.992;24.292;2023-05-19T03:04:48;103115.13;;;3.67;100.00
57948;BME280;43754;56.992;24.292;2023-05-19T03:07:20;103108.81;;;3.69;100.00
57948;BME280;43754;56.992;24.292;2023-05-19T03:09:56;103109.50;;;3.73;100.00
57948;BME280;43754;56.992;24.292;2023-05-19T03:12:28;103112.97;;;3.75;100.00
57948;BME280;43754;56.992;24.292;2023-05-19T03:15:00;103117.88;;;3.83;100.00
57948;BME280;43754;56.992;24.292;2023-05-19T03:17:32;103116.94;;;3.84;100.00
57948;BME280;43754;56.992;24.292;2023-05-19T03:20:07;103122.78;;;3.90;100.00
57948;BME280;43754;56.992;24.292;2023-05-19T03:22:41;103123.63;;;3.91;100.00
57948;BME280;43754;56.992;24.292;2023-05-19T03:25:13;103125.25;;;3.93;100.00
57948;BME280;43754;56.992;24.292;2023-05-19T03:27:45;103126.91;;;3.96;100.00
57948;BME280;43754;56.992;24.292;2023-05-19T03:30:17;103136.44;;;4.00;100.00
57948;BME280;43754;56.992;24.292;2023-05-19T03:33:14;103131.03;;;4.01;100.00
57948;BME280;43754;56.992;24.292;2023-05-19T03:35:48;103140.41;;;4.08;100.00
57948;BME280;43754;56.992;24.292;2023-05-19T03:38:20;103141.28;;;4.42;100.00
57948;BME280;43754;56.992;24.292;2023-05-19T03:40:58;103147.03;;;4.83;100.00
57948;BME280;43754;56.992;24.292;2023-05-19T03:43:30;103137.56;;;4.93;100.00
57948;BME280;43754;56.992;24.292;2023-05-19T03:46:06;103133.31;;;5.06;100.00
57948;BME280;43754;56.992;24.292;2023-05-19T03:48:58;103138.28;;;5.12;100.00
57948;BME280;43754;56.992;24.292;2023-05-19T03:51:51;103139.66;;;5.19;100.00
57948;BME280;43754;56.992;24.292;2023-05-19T03:54:34;103134.84;;;5.26;100.00
57948;BME280;43754;56.992;24.292;2023-05-19T03:57:07;103145.63;;;5.54;100.00
57948;BME280;43754;56.992;24.292;2023-05-19T03:59:39;103135.88;;;6.71;100.00
57948;BME280;43754;56.992;24.292;2023-05-19T04:02:12;103134.34;;;7.88;100.00
57948;BME280;43754;56.992;24.292;2023-05-19T04:04:44;103132.84;;;8.85;100.00
57948;BME280;43754;56.992;24.292;2023-05-19T04:07:17;103138.16;;;9.58;100.00
57948;BME280;43754;56.992;24.292;2023-05-19T04:09:49;103127.72;;;10.12;97.85
57948;BME280;43754;56.992;24.292;2023-05-19T04:12:21;103128.78;;;10.55;95.37
57948;BME280;43754;56.992;24.292;2023-05-19T04:14:56;103132.78;;;10.94;92.65
57948;BME280;43754;56.992;24.292;2023-05-19T04:17:28;103132.63;;;11.18;91.72
57948;BME280;43754;56.992;24.292;2023-05-19T04:20:00;103140.69;;;11.50;90.14
57948;BME280;43754;56.992;24.292;2023-05-19T04:22:34;103147.81;;;11.83;86.13
57948;BME280;43754;56.992;24.292;2023-05-19T04:25:06;103138.50;;;11.87;85.02
57948;BME280;43754;56.992;24.292;2023-05-19T04:27:39;103147.31;;;12.10;81.47
57948;BME280;43754;56.992;24.292;2023-05-19T04:30:12;103134.09;;;12.27;83.27
57948;BME280;43754;56.992;24.292;2023-05-19T04:32:49;103143.38;;;12.65;82.58
57948;BME280;43754;56.992;24.292;2023-05-19T04:35:21;103146.88;;;12.96;83.00
57948;BME280;43754;56.992;24.292;2023-05-19T04:37:55;103153.56;;;13.01;79.26
57948;BME280;43754;56.992;24.292;2023-05-19T04:40:32;103143.16;;;13.27;76.38
57948;BME280;43754;56.992;24.292;2023-05-19T04:43:05;103152.41;;;13.53;75.60
57948;BME280;43754;56.992;24.292;2023-05-19T04:45:38;103150.81;;;13.22;75.14
57948;BME280;43754;56.992;24.292;2023-05-19T04:48:15;103147.28;;;13.69;72.56
57948;BME280;43754;56.992;24.292;2023-05-19T04:50:47;103144.31;;;14.01;73.91
57948;BME280;43754;56.992;24.292;2023-05-19T04:53:21;103132.53;;;14.02;72.40
57948;BME280;43754;56.992;24.292;2023-05-19T04:55:53;103143.59;;;14.09;69.40
57948;BME280;43754;56.992;24.292;2023-05-19T04:58:25;103137.84;;;14.41;68.27
57948;BME280;43754;56.992;24.292;2023-05-19T05:00:58;103140.00;;;14.27;68.83
57948;BME280;43754;56.992;24.292;2023-05-19T05:03:31;103144.06;;;14.60;67.33
57948;BME280;43754;56.992;24.292;2023-05-19T05:06:05;103148.53;;;15.06;65.89
57948;BME280;43754;56.992;24.292;2023-05-19T05:08:38;103147.38;;;15.09;62.70
57948;BME280;43754;56.992;24.292;2023-05-19T05:11:13;103153.53;;;15.01;61.73
57948;BME280;43754;56.992;24.292;2023-05-19T05:13:46;103149.03;;;14.92;60.58
57948;BME280;43754;56.992;24.292;2023-05-19T05:16:19;103145.31;;;15.20;63.32
57948;BME280;43754;56.992;24.292;2023-05-19T05:18:53;103141.28;;;15.52;59.27
57948;BME280;43754;56.992;24.292;2023-05-19T05:21:26;103146.56;;;15.26;59.12
57948;BME280;43754;56.992;24.292;2023-05-19T05:24:00;103144.47;;;15.65;58.85
57948;BME280;43754;56.992;24.292;2023-05-19T05:26:35;103152.13;;;15.70;58.62
57948;BME280;43754;56.992;24.292;2023-05-19T05:29:08;103139.47;;;15.96;57.27
57948;BME280;43754;56.992;24.292;2023-05-19T05:31:40;103139.88;;;16.27;56.92
57948;BME280;43754;56.992;24.292;2023-05-19T05:34:12;103144.38;;;16.18;53.31
57948;BME280;43754;56.992;24.292;2023-05-19T05:36:46;103134.63;;;16.25;53.51
57948;BME280;43754;56.992;24.292;2023-05-19T05:39:20;103138.38;;;16.32;52.15
57948;BME280;43754;56.992;24.292;2023-05-19T05:41:52;103140.34;;;16.48;54.86
57948;BME280;43754;56.992;24.292;2023-05-19T05:44:25;103146.38;;;16.60;52.16
57948;BME280;43754;56.992;24.292;2023-05-19T05:46:58;103136.88;;;16.89;51.75
57948;BME280;43754;56.992;24.292;2023-05-19T05:49:30;103140.41;;;16.82;50.84
57948;BME280;43754;56.992;24.292;2023-05-19T05:52:03;103142.81;;;16.93;51.41
57948;BME280;43754;56.992;24.292;2023-05-19T05:54:46;103144.47;;;16.86;51.06
57948;BME280;43754;56.992;24.292;2023-05-19T05:57:22;103144.81;;;16.91;52.55
57948;BME280;43754;56.992;24.292;2023-05-19T05:59:54;103148.34;;;16.83;51.36
57948;BME280;43754;56.992;24.292;2023-05-19T06:02:26;103144.81;;;16.91;51.28
57948;BME280;43754;56.992;24.292;2023-05-19T06:05:01;103144.06;;;17.15;51.02
57948;BME280;43754;56.992;24.292;2023-05-19T06:07:33;103154.00;;;16.98;51.03
57948;BME280;43754;56.992;24.292;2023-05-19T06:10:08;103153.63;;;16.93;51.03
57948;BME280;43754;56.992;24.292;2023-05-19T06:12:43;103153.63;;;16.93;50.27
57948;BME280;43754;56.992;24.292;2023-05-19T06:15:16;103154.31;;;16.95;50.41
57948;BME280;43754;56.992;24.292;2023-05-19T06:18:00;103149.16;;;17.18;50.80
57948;BME280;43754;56.992;24.292;2023-05-19T06:20:33;103154.56;;;16.76;49.63
57948;BME280;43754;56.992;24.292;2023-05-19T06:23:05;103154.31;;;16.35;51.25
57948;BME280;43754;56.992;24.292;2023-05-19T06:25:39;103151.97;;;16.66;50.67
57948;BME280;43754;56.992;24.292;2023-05-19T06:28:11;103145.50;;;16.93;51.52
57948;BME280;43754;56.992;24.292;2023-05-19T06:30:44;103147.06;;;17.03;51.62
57948;BME280;43754;56.992;24.292;2023-05-19T06:33:33;103143.63;;;16.85;50.15
57948;BME280;43754;56.992;24.292;2023-05-19T06:36:06;103151.56;;;16.87;48.78
57948;BME280;43754;56.992;24.292;2023-05-19T06:38:42;103144.06;;;16.73;49.33
57948;BME280;43754;56.992;24.292;2023-05-19T06:41:16;103145.38;;;16.94;48.71
57948;BME280;43754;56.992;24.292;2023-05-19T06:43:51;103141.31;;;16.65;50.67
57948;BME280;43754;56.992;24.292;2023-05-19T06:46:25;103149.44;;;16.65;49.33
57948;BME280;43754;56.992;24.292;2023-05-19T06:48:58;103153.28;;;16.88;49.65
57948;BME280;43754;56.992;24.292;2023-05-19T06:51:32;103142.34;;;16.64;47.88
57948;BME280;43754;56.992;24.292;2023-05-19T06:54:06;103143.00;;;16.66;51.05
57948;BME280;43754;56.992;24.292;2023-05-19T06:56:39;103144.31;;;16.95;50.01
57948;BME280;43754;56.992;24.292;2023-05-19T06:59:11;103145.53;;;17.01;49.39
57948;BME280;43754;56.992;24.292;2023-05-19T07:01:43;103144.34;;;17.03;49.18
57948;BME280;43754;56.992;24.292;2023-05-19T07:04:16;103143.06;;;17.16;49.52
57948;BME280;43754;56.992;24.292;2023-05-19T07:06:48;103136.44;;;17.10;47.62
57948;BME280;43754;56.992;24.292;2023-05-19T07:09:21;103143.09;;;17.32;48.43
57948;BME280;43754;56.992;24.292;2023-05-19T07:11:56;103143.09;;;17.24;48.22
57948;BME280;43754;56.992;24.292;2023-05-19T07:14:28;103145.44;;;17.19;48.54
57948;BME280;43754;56.992;24.292;2023-05-19T07:17:00;103138.69;;;17.31;48.89
57948;BME280;43754;56.992;24.292;2023-05-19T07:19:32;103146.28;;;17.11;48.39
57948;BME280;43754;56.992;24.292;2023-05-19T07:22:04;103137.97;;;17.21;48.37
57948;BME280;43754;56.992;24.292;2023-05-19T07:24:36;103149.72;;;17.37;48.38
57948;BME280;43754;56.992;24.292;2023-05-19T07:27:10;103145.16;;;17.54;46.58
57948;BME280;43754;56.992;24.292;2023-05-19T07:29:42;103145.91;;;17.64;46.40
57948;BME280;43754;56.992;24.292;2023-05-19T07:32:14;103138.13;;;17.77;46.42
57948;BME280;43754;56.992;24.292;2023-05-19T07:34:46;103143.19;;;17.80;45.57
57948;BME280;43754;56.992;24.292;2023-05-19T07:37:18;103142.69;;;17.85;45.76
57948;BME280;43754;56.992;24.292;2023-05-19T07:39:50;103141.31;;;18.13;45.47
57948;BME280;43754;56.992;24.292;2023-05-19T07:42:24;103143.34;;;18.27;44.22
57948;BME280;43754;56.992;24.292;2023-05-19T07:44:56;103140.59;;;18.44;43.12
57948;BME280;43754;56.992;24.292;2023-05-19T07:47:28;103141.09;;;18.55;44.99
57948;BME280;43754;56.992;24.292;2023-05-19T07:50:00;103140.66;;;18.74;44.65
57948;BME280;43754;56.992;24.292;2023-05-19T07:52:32;103144.50;;;18.57;42.74
57948;BME280;43754;56.992;24.292;2023-05-19T07:55:05;103135.31;;;18.58;42.80
57948;BME280;43754;56.992;24.292;2023-05-19T07:57:38;103142.59;;;18.42;41.48
57948;BME280;43754;56.992;24.292;2023-05-19T08:00:11;103136.88;;;18.53;43.35
57948;BME280;43754;56.992;24.292;2023-05-19T08:02:44;103133.22;;;18.76;43.70
57948;BME280;43754;56.992;24.292;2023-05-19T08:05:16;103138.31;;;18.71;41.84
57948;BME280;43754;56.992;24.292;2023-05-19T08:07:49;103131.72;;;18.50;40.30
57948;BME280;43754;56.992;24.292;2023-05-19T08:10:21;103132.09;;;18.55;41.75
57948;BME280;43754;56.992;24.292;2023-05-19T08:12:54;103133.38;;;18.75;43.09
57948;BME280;43754;56.992;24.292;2023-05-19T08:15:26;103129.19;;;18.64;41.04
57948;BME280;43754;56.992;24.292;2023-05-19T08:17:58;103130.66;;;18.75;41.73
57948;BME280;43754;56.992;24.292;2023-05-19T08:20:30;103138.25;;;18.32;39.88
57948;BME280;43754;56.992;24.292;2023-05-19T08:23:03;103124.88;;;18.07;40.82
57948;BME280;43754;56.992;24.292;2023-05-19T08:25:36;103133.13;;;18.37;41.65
57948;BME280;43754;56.992;24.292;2023-05-19T08:28:09;103126.28;;;18.58;41.40
57948;BME280;43754;56.992;24.292;2023-05-19T08:30:41;103118.16;;;18.42;40.09
57948;BME280;43754;56.992;24.292;2023-05-19T08:33:14;103120.50;;;18.69;41.15
57948;BME280;43754;56.992;24.292;2023-05-19T08:35:46;103120.66;;;19.06;41.07
57948;BME280;43754;56.992;24.292;2023-05-19T08:38:19;103119.91;;;19.20;40.72
57948;BME280;43754;56.992;24.292;2023-05-19T08:40:51;103122.41;;;18.99;38.67
57948;BME280;43754;56.992;24.292;2023-05-19T08:43:25;103118.56;;;19.16;40.51
57948;BME280;43754;56.992;24.292;2023-05-19T08:45:58;103111.03;;;19.26;40.71
57948;BME280;43754;56.992;24.292;2023-05-19T08:48:31;103108.16;;;19.28;39.69
57948;BME280;43754;56.992;24.292;2023-05-19T08:51:10;103116.09;;;19.29;40.08
57948;BME280;43754;56.992;24.292;2023-05-19T08:53:47;103105.59;;;19.57;41.62
57948;BME280;43754;56.992;24.292;2023-05-19T08:56:21;103117.81;;;19.61;39.55
57948;BME280;43754;56.992;24.292;2023-05-19T08:58:56;103110.97;;;19.65;39.31
57948;BME280;43754;56.992;24.292;2023-05-19T09:01:31;103110.22;;;18.95;40.04
57948;BME280;43754;56.992;24.292;2023-05-19T09:04:03;103106.63;;;19.25;41.71
57948;BME280;43754;56.992;24.292;2023-05-19T09:06:37;103109.66;;;19.76;41.92
57948;BME280;43754;56.992;24.292;2023-05-19T09:09:11;103097.69;;;19.85;41.38
57948;BME280;43754;56.992;24.292;2023-05-19T09:11:45;103104.69;;;19.80;41.29
57948;BME280;43754;56.992;24.292;2023-05-19T09:14:18;103107.47;;;19.94;42.37
57948;BME280;43754;56.992;24.292;2023-05-19T09:16:50;103099.38;;;19.86;41.51
57948;BME280;43754;56.992;24.292;2023-05-19T09:19:27;103113.16;;;19.85;43.25
57948;BME280;43754;56.992;24.292;2023-05-19T09:22:00;103104.47;;;19.66;42.75
57948;BME280;43754;56.992;24.292;2023-05-19T09:24:34;103114.63;;;19.72;43.46
57948;BME280;43754;56.992;24.292;2023-05-19T09:27:07;103109.75;;;19.45;43.74
57948;BME280;43754;56.992;24.292;2023-05-19T09:29:41;103105.00;;;19.39;44.66
57948;BME280;43754;56.992;24.292;2023-05-19T09:32:23;103103.25;;;19.23;45.10
57948;BME280;43754;56.992;24.292;2023-05-19T09:34:55;103103.50;;;19.37;44.38
57948;BME280;43754;56.992;24.292;2023-05-19T09:37:27;103109.28;;;19.11;44.56
57948;BME280;43754;56.992;24.292;2023-05-19T09:40:00;103096.69;;;19.41;45.12
57948;BME280;43754;56.992;24.292;2023-05-19T09:42:36;103103.28;;;19.46;44.33
57948;BME280;43754;56.992;24.292;2023-05-19T09:45:10;103097.00;;;19.38;44.62
57948;BME280;43754;56.992;24.292;2023-05-19T09:47:42;103094.78;;;19.18;44.64
57948;BME280;43754;56.992;24.292;2023-05-19T09:50:14;103091.56;;;19.15;44.82
57948;BME280;43754;56.992;24.292;2023-05-19T09:52:47;103093.81;;;19.34;44.99
57948;BME280;43754;56.992;24.292;2023-05-19T09:55:24;103086.16;;;19.60;44.42
57948;BME280;43754;56.992;24.292;2023-05-19T09:57:57;103080.03;;;19.81;43.86
57948;BME280;43754;56.992;24.292;2023-05-19T10:00:32;103082.47;;;19.76;42.96
57948;BME280;43754;56.992;24.292;2023-05-19T10:03:05;103080.69;;;19.83;43.58
57948;BME280;43754;56.992;24.292;2023-05-19T10:05:38;103089.47;;;19.70;44.31
57948;BME280;43754;56.992;24.292;2023-05-19T10:08:12;103090.50;;;18.93;43.38
57948;BME280;43754;56.992;24.292;2023-05-19T10:10:45;103087.78;;;18.93;44.20
57948;BME280;43754;56.992;24.292;2023-05-19T10:13:18;103088.47;;;19.18;44.87
57948;BME280;43754;56.992;24.292;2023-05-19T10:15:54;103092.00;;;18.96;44.60
57948;BME280;43754;56.992;24.292;2023-05-19T10:18:32;103090.75;;;18.75;44.47
57948;BME280;43754;56.992;24.292;2023-05-19T10:21:06;103091.69;;;18.60;44.57
57948;BME280;43754;56.992;24.292;2023-05-19T10:23:39;103087.38;;;18.73;44.98
57948;BME280;43754;56.992;24.292;2023-05-19T10:26:11;103085.25;;;18.45;45.22
57948;BME280;43754;56.992;24.292;2023-05-19T10:28:44;103091.22;;;18.32;46.61
57948;BME280;43754;56.992;24.292;2023-05-19T10:31:19;103095.06;;;18.54;46.13
57948;BME280;43754;56.992;24.292;2023-05-19T10:34:03;103091.19;;;18.87;45.56
57948;BME280;43754;56.992;24.292;2023-05-19T10:36:47;103075.06;;;19.16;45.12
57948;BME280;43754;56.992;24.292;2023-05-19T10:39:23;103083.66;;;18.66;44.69
57948;BME280;43754;56.992;24.292;2023-05-19T10:42:02;103079.31;;;18.88;45.45
57948;BME280;43754;56.992;24.292;2023-05-19T10:44:47;103079.78;;;19.22;46.20
57948;BME280;43754;56.992;24.292;2023-05-19T10:47:24;103083.59;;;18.82;44.11
57948;BME280;43754;56.992;24.292;2023-05-19T10:49:59;103083.16;;;18.63;44.43
57948;BME280;43754;56.992;24.292;2023-05-19T10:52:35;103076.59;;;18.49;46.86
57948;BME280;43754;56.992;24.292;2023-05-19T10:55:08;103076.34;;;18.67;45.21
57948;BME280;43754;56.992;24.292;2023-05-19T10:57:52;103076.50;;;18.73;45.69
57948;BME280;43754;56.992;24.292;2023-05-19T11:00:29;103074.72;;;18.89;47.08
57948;BME280;43754;56.992;24.292;2023-05-19T11:03:16;103063.38;;;18.85;45.61
57948;BME280;43754;56.992;24.292;2023-05-19T11:06:16;103074.03;;;18.95;45.61
57948;BME280;43754;56.992;24.292;2023-05-19T11:08:52;103080.56;;;18.77;45.03
57948;BME280;43754;56.992;24.292;2023-05-19T11:11:24;103077.63;;;18.40;45.71
57948;BME280;43754;56.992;24.292;2023-05-19T11:13:58;103067.97;;;18.29;45.42
57948;BME280;43754;56.992;24.292;2023-05-19T11:16:31;103065.78;;;18.25;46.26
57948;BME280;43754;56.992;24.292;2023-05-19T11:19:05;103080.13;;;18.50;45.95
57948;BME280;43754;56.992;24.292;2023-05-19T11:21:41;103078.78;;;18.62;44.47
57948;BME280;43754;56.992;24.292;2023-05-19T11:24:32;103066.94;;;18.38;45.16
57948;BME280;43754;56.992;24.292;2023-05-19T11:27:20;103080.19;;;18.25;45.09
57948;BME280;43754;56.992;24.292;2023-05-19T11:29:54;103081.97;;;17.94;46.10
57948;BME280;43754;56.992;24.292;2023-05-19T11:32:29;103073.97;;;18.01;45.26
57948;BME280;43754;56.992;24.292;2023-05-19T11:35:03;103088.06;;;17.88;45.49
57948;BME280;43754;56.992;24.292;2023-05-19T11:37:36;103078.72;;;17.42;45.55
57948;BME280;43754;56.992;24.292;2023-05-19T11:40:08;103080.28;;;17.85;46.73
57948;BME280;43754;56.992;24.292;2023-05-19T11:42:41;103072.50;;;17.74;45.49
57948;BME280;43754;56.992;24.292;2023-05-19T11:45:15;103075.72;;;17.69;47.07
57948;BME280;43754;56.992;24.292;2023-05-19T11:47:47;103068.25;;;17.79;45.93
57948;BME280;43754;56.992;24.292;2023-05-19T11:50:34;103073.50;;;17.57;46.65
57948;BME280;43754;56.992;24.292;2023-05-19T11:53:10;103070.41;;;17.35;47.40
57948;BME280;43754;56.992;24.292;2023-05-19T11:55:44;103089.56;;;17.34;46.98
57948;BME280;43754;56.992;24.292;2023-05-19T11:58:24;103075.16;;;17.33;47.66
57948;BME280;43754;56.992;24.292;2023-05-19T12:01:02;103078.78;;;17.82;46.64
57948;BME280;43754;56.992;24.292;2023-05-19T12:03:34;103066.84;;;18.00;45.56
57948;BME280;43754;56.992;24.292;2023-05-19T12:06:09;103066.00;;;18.07;44.58
57948;BME280;43754;56.992;24.292;2023-05-19T12:08:41;103060.41;;;18.01;44.75
57948;BME280;43754;56.992;24.292;2023-05-19T12:11:13;103063.47;;;18.06;44.27
57948;BME280;43754;56.992;24.292;2023-05-19T12:13:48;103063.63;;;18.04;45.00
57948;BME280;43754;56.992;24.292;2023-05-19T12:16:21;103057.41;;;17.71;44.71
57948;BME280;43754;56.992;24.292;2023-05-19T12:18:54;103063.16;;;17.68;44.96
57948;BME280;43754;56.992;24.292;2023-05-19T12:21:28;103070.59;;;17.50;47.53
57948;BME280;43754;56.992;24.292;2023-05-19T12:24:05;103075.03;;;17.67;46.00
57948;BME280;43754;56.992;24.292;2023-05-19T12:26:39;103069.41;;;17.53;46.16
57948;BME280;43754;56.992;24.292;2023-05-19T12:29:12;103076.19;;;17.32;44.99
57948;BME280;43754;56.992;24.292;2023-05-19T12:31:45;103083.44;;;17.16;46.88
57948;BME280;43754;56.992;24.292;2023-05-19T12:34:18;103067.94;;;16.92;46.49
57948;BME280;43754;56.992;24.292;2023-05-19T12:36:51;103081.91;;;17.13;46.42
57948;BME280;43754;56.992;24.292;2023-05-19T12:39:23;103072.94;;;17.37;45.83
57948;BME280;43754;56.992;24.292;2023-05-19T12:42:00;103070.41;;;17.19;45.87
57948;BME280;43754;56.992;24.292;2023-05-19T12:44:35;103074.63;;;17.22;46.24
57948;BME280;43754;56.992;24.292;2023-05-19T12:47:07;103073.13;;;17.35;46.69
57948;BME280;43754;56.992;24.292;2023-05-19T12:49:53;103080.56;;;17.41;46.48
57948;BME280;43754;56.992;24.292;2023-05-19T12:52:28;103076.50;;;17.29;47.24
57948;BME280;43754;56.992;24.292;2023-05-19T12:55:01;103083.78;;;17.37;47.39
57948;BME280;43754;56.992;24.292;2023-05-19T12:57:36;103070.06;;;17.38;46.48
57948;BME280;43754;56.992;24.292;2023-05-19T13:00:13;103067.22;;;17.48;46.98
57948;BME280;43754;56.992;24.292;2023-05-19T13:02:55;103067.41;;;17.63;45.33
57948;BME280;43754;56.992;24.292;2023-05-19T13:05:28;103054.00;;;17.85;45.05
57948;BME280;43754;56.992;24.292;2023-05-19T13:08:04;103057.19;;;17.97;45.90
57948;BME280;43754;56.992;24.292;2023-05-19T13:10:38;103054.63;;;18.20;45.23
57948;BME280;43754;56.992;24.292;2023-05-19T13:13:11;103058.50;;;18.17;44.98
57948;BME280;43754;56.992;24.292;2023-05-19T13:15:44;103060.19;;;18.26;45.66
57948;BME280;43754;56.992;24.292;2023-05-19T13:18:16;103046.69;;;18.02;45.40